sensor_id;sensor_type;location;lat;lon;timestamp;temperature;humidity
19567;DHT22;9930;49.240;8.548;2022-09-01T00:00:10;21.10;64.90
19567;DHT22;9930;49.240;8.548;2022-09-01T00:02:39;21.00;64.80
19567;DHT22;9930;49.240;8.548;2022-09-01T00:05:07;21.00;64.90
19567;DHT22;9930;49.240;8.548;2022-09-01T00:07:37;21.00;64.90
19567;DHT22;9930;49.240;8.548;2022-09-01T00:10:06;21.00;64.90
19567;DHT22;9930;49.240;8.548;2022-09-01T00:12:36;21.00;64.90
19567;DHT22;9930;49.240;8.548;2022-09-01T00:15:03;21.00;65.00
19567;DHT22;9930;49.240;8.548;2022-09-01T00:17:31;21.00;65.00
19567;DHT22;9930;49.240;8.548;2022-09-01T00:19:58;21.00;65.10
19567;DHT22;9930;49.240;8.548;2022-09-01T00:22:27;20.90;65.10
19567;DHT22;9930;49.240;8.548;2022-09-01T00:24:54;20.90;65.10
19567;DHT22;9930;49.240;8.548;2022-09-01T00:27:27;20.90;65.10
19567;DHT22;9930;49.240;8.548;2022-09-01T00:29:54;20.90;65.20
19567;DHT22;9930;49.240;8.548;2022-09-01T00:32:27;20.90;65.30
19567;DHT22;9930;49.240;8.548;2022-09-01T00:34:54;20.90;65.30
19567;DHT22;9930;49.240;8.548;2022-09-01T00:37:21;20.90;65.40
19567;DHT22;9930;49.240;8.548;2022-09-01T00:39:49;20.90;65.40
19567;DHT22;9930;49.240;8.548;2022-09-01T00:42:15;20.80;65.40
19567;DHT22;9930;49.240;8.548;2022-09-01T00:44:41;20.80;65.40
19567;DHT22;9930;49.240;8.548;2022-09-01T00:47:06;20.80;65.40
19567;DHT22;9930;49.240;8.548;2022-09-01T00:49:37;20.80;65.50
19567;DHT22;9930;49.240;8.548;2022-09-01T00:52:34;20.80;65.60
19567;DHT22;9930;49.240;8.548;2022-09-01T00:55:08;20.70;65.70
19567;DHT22;9930;49.240;8.548;2022-09-01T00:57:38;20.70;65.70
19567;DHT22;9930;49.240;8.548;2022-09-01T01:00:14;20.80;65.70
19567;DHT22;9930;49.240;8.548;2022-09-01T01:02:46;20.70;65.70
19567;DHT22;9930;49.240;8.548;2022-09-01T01:05:13;20.80;65.90
19567;DHT22;9930;49.240;8.548;2022-09-01T01:07:42;20.70;65.80
19567;DHT22;9930;49.240;8.548;2022-09-01T01:10:12;20.70;65.80
19567;DHT22;9930;49.240;8.548;2022-09-01T01:12:40;20.70;66.00
19567;DHT22;9930;49.240;8.548;2022-09-01T01:15:16;20.70;66.00
19567;DHT22;9930;49.240;8.548;2022-09-01T01:17:45;20.70;66.10
19567;DHT22;9930;49.240;8.548;2022-09-01T01:20:14;20.70;66.10
19567;DHT22;9930;49.240;8.548;2022-09-01T01:23:20;20.60;66.20
19567;DHT22;9930;49.240;8.548;2022-09-01T01:25:54;20.60;66.50
19567;DHT22;9930;49.240;8.548;2022-09-01T01:28:26;20.60;66.50
19567;DHT22;9930;49.240;8.548;2022-09-01T01:31:07;20.60;66.50
19567;DHT22;9930;49.240;8.548;2022-09-01T01:36:20;20.50;66.50
19567;DHT22;9930;49.240;8.548;2022-09-01T01:39:01;20.50;66.50
19567;DHT22;9930;49.240;8.548;2022-09-01T01:41:38;20.50;66.60
19567;DHT22;9930;49.240;8.548;2022-09-01T01:44:13;20.40;66.60
19567;DHT22;9930;49.240;8.548;2022-09-01T01:46:44;20.40;66.80
19567;DHT22;9930;49.240;8.548;2022-09-01T01:49:16;20.40;66.80
19567;DHT22;9930;49.240;8.548;2022-09-01T01:51:48;20.40;66.90
19567;DHT22;9930;49.240;8.548;2022-09-01T01:54:19;20.40;67.00
19567;DHT22;9930;49.240;8.548;2022-09-01T01:56:47;20.40;67.10
19567;DHT22;9930;49.240;8.548;2022-09-01T01:59:13;20.30;67.00
19567;DHT22;9930;49.240;8.548;2022-09-01T02:01:42;20.30;67.00
19567;DHT22;9930;49.240;8.548;2022-09-01T02:04:16;20.30;67.20
19567;DHT22;9930;49.240;8.548;2022-09-01T02:06:49;20.30;67.20
19567;DHT22;9930;49.240;8.548;2022-09-01T02:09:18;20.30;67.20
19567;DHT22;9930;49.240;8.548;2022-09-01T02:11:50;20.30;67.30
19567;DHT22;9930;49.240;8.548;2022-09-01T02:14:28;20.30;67.40
19567;DHT22;9930;49.240;8.548;2022-09-01T02:16:53;20.30;67.50
19567;DHT22;9930;49.240;8.548;2022-09-01T02:19:28;20.20;67.40
19567;DHT22;9930;49.240;8.548;2022-09-01T02:21:58;20.20;67.50
19567;DHT22;9930;49.240;8.548;2022-09-01T02:24:28;20.30;67.50
19567;DHT22;9930;49.240;8.548;2022-09-01T02:26:58;20.20;67.60
19567;DHT22;9930;49.240;8.548;2022-09-01T02:29:30;20.20;67.70
19567;DHT22;9930;49.240;8.548;2022-09-01T02:31:58;20.20;67.70
19567;DHT22;9930;49.240;8.548;2022-09-01T02:34:28;20.20;67.90
19567;DHT22;9930;49.240;8.548;2022-09-01T02:37:01;20.10;67.80
19567;DHT22;9930;49.240;8.548;2022-09-01T02:39:30;20.10;67.90
19567;DHT22;9930;49.240;8.548;2022-09-01T02:41:59;20.10;68.00
19567;DHT22;9930;49.240;8.548;2022-09-01T02:44:29;20.20;68.00
19567;DHT22;9930;49.240;8.548;2022-09-01T02:46:59;20.10;68.00
19567;DHT22;9930;49.240;8.548;2022-09-01T02:49:28;20.10;68.10
19567;DHT22;9930;49.240;8.548;2022-09-01T02:51:58;20.10;68.10
19567;DHT22;9930;49.240;8.548;2022-09-01T02:54:30;20.10;68.30
19567;DHT22;9930;49.240;8.548;2022-09-01T02:56:59;20.00;68.20
19567;DHT22;9930;49.240;8.548;2022-09-01T02:59:28;20.00;68.20
19567;DHT22;9930;49.240;8.548;2022-09-01T03:01:58;20.00;68.30
19567;DHT22;9930;49.240;8.548;2022-09-01T03:04:29;20.00;68.30
19567;DHT22;9930;49.240;8.548;2022-09-01T03:06:59;19.90;68.40
19567;DHT22;9930;49.240;8.548;2022-09-01T03:09:28;20.00;68.40
19567;DHT22;9930;49.240;8.548;2022-09-01T03:12:03;20.00;68.50
19567;DHT22;9930;49.240;8.548;2022-09-01T03:14:31;19.90;68.60
19567;DHT22;9930;49.240;8.548;2022-09-01T03:16:58;19.90;68.50
19567;DHT22;9930;49.240;8.548;2022-09-01T03:19:32;19.90;68.70
19567;DHT22;9930;49.240;8.548;2022-09-01T03:22:11;19.90;68.80
19567;DHT22;9930;49.240;8.548;2022-09-01T03:24:39;19.80;68.80
19567;DHT22;9930;49.240;8.548;2022-09-01T03:27:09;19.90;68.90
19567;DHT22;9930;49.240;8.548;2022-09-01T03:29:37;19.80;69.00
19567;DHT22;9930;49.240;8.548;2022-09-01T03:32:05;19.80;69.10
19567;DHT22;9930;49.240;8.548;2022-09-01T03:34:36;19.80;69.10
19567;DHT22;9930;49.240;8.548;2022-09-01T03:37:01;19.80;69.00
19567;DHT22;9930;49.240;8.548;2022-09-01T03:39:34;19.80;69.10
19567;DHT22;9930;49.240;8.548;2022-09-01T03:42:00;19.80;69.10
19567;DHT22;9930;49.240;8.548;2022-09-01T03:44:27;19.80;69.10
19567;DHT22;9930;49.240;8.548;2022-09-01T03:46:54;19.70;69.10
19567;DHT22;9930;49.240;8.548;2022-09-01T03:49:36;19.80;69.20
19567;DHT22;9930;49.240;8.548;2022-09-01T03:52:04;19.70;69.40
19567;DHT22;9930;49.240;8.548;2022-09-01T03:54:33;19.70;69.30
19567;DHT22;9930;49.240;8.548;2022-09-01T03:56:59;19.70;69.40
19567;DHT22;9930;49.240;8.548;2022-09-01T03:59:31;19.70;69.40
19567;DHT22;9930;49.240;8.548;2022-09-01T04:01:59;19.60;69.50
19567;DHT22;9930;49.240;8.548;2022-09-01T04:04:28;19.60;69.60
19567;DHT22;9930;49.240;8.548;2022-09-01T04:06:58;19.60;69.60
19567;DHT22;9930;49.240;8.548;2022-09-01T04:09:28;19.60;69.70
19567;DHT22;9930;49.240;8.548;2022-09-01T04:11:57;19.60;69.80
19567;DHT22;9930;49.240;8.548;2022-09-01T04:14:25;19.60;69.90
19567;DHT22;9930;49.240;8.548;2022-09-01T04:16:53;19.50;69.80
19567;DHT22;9930;49.240;8.548;2022-09-01T04:19:38;19.50;69.90
19567;DHT22;9930;49.240;8.548;2022-09-01T04:22:04;19.50;70.00
19567;DHT22;9930;49.240;8.548;2022-09-01T04:24:37;19.50;70.10
19567;DHT22;9930;49.240;8.548;2022-09-01T04:27:06;19.50;70.10
19567;DHT22;9930;49.240;8.548;2022-09-01T04:29:33;19.40;70.20
19567;DHT22;9930;49.240;8.548;2022-09-01T04:32:08;19.40;70.20
19567;DHT22;9930;49.240;8.548;2022-09-01T04:34:39;19.40;70.50
19567;DHT22;9930;49.240;8.548;2022-09-01T04:37:15;19.40;70.40
19567;DHT22;9930;49.240;8.548;2022-09-01T04:39:51;19.40;70.60
19567;DHT22;9930;49.240;8.548;2022-09-01T04:42:19;19.30;70.60
19567;DHT22;9930;49.240;8.548;2022-09-01T04:44:49;19.30;70.50
19567;DHT22;9930;49.240;8.548;2022-09-01T04:47:21;19.30;70.70
19567;DHT22;9930;49.240;8.548;2022-09-01T04:49:59;19.30;70.70
19567;DHT22;9930;49.240;8.548;2022-09-01T04:52:27;19.20;70.70
19567;DHT22;9930;49.240;8.548;2022-09-01T04:54:53;19.20;70.70
19567;DHT22;9930;49.240;8.548;2022-09-01T04:57:22;19.30;71.00
19567;DHT22;9930;49.240;8.548;2022-09-01T04:59:47;19.20;71.00
19567;DHT22;9930;49.240;8.548;2022-09-01T05:02:14;19.20;71.00
19567;DHT22;9930;49.240;8.548;2022-09-01T05:04:40;19.20;71.10
19567;DHT22;9930;49.240;8.548;2022-09-01T05:07:09;19.20;71.20
19567;DHT22;9930;49.240;8.548;2022-09-01T05:09:36;19.20;71.20
19567;DHT22;9930;49.240;8.548;2022-09-01T05:12:04;19.20;71.30
19567;DHT22;9930;49.240;8.548;2022-09-01T05:14:38;19.20;71.50
19567;DHT22;9930;49.240;8.548;2022-09-01T05:17:14;19.20;71.50
19567;DHT22;9930;49.240;8.548;2022-09-01T05:19:43;19.20;71.60
19567;DHT22;9930;49.240;8.548;2022-09-01T05:22:12;19.20;71.60
19567;DHT22;9930;49.240;8.548;2022-09-01T05:24:46;19.20;71.60
19567;DHT22;9930;49.240;8.548;2022-09-01T05:27:14;19.20;71.60
19567;DHT22;9930;49.240;8.548;2022-09-01T05:29:43;19.20;71.70
19567;DHT22;9930;49.240;8.548;2022-09-01T05:32:13;19.20;71.70
19567;DHT22;9930;49.240;8.548;2022-09-01T05:34:42;19.20;71.80
19567;DHT22;9930;49.240;8.548;2022-09-01T05:37:08;19.30;71.90
19567;DHT22;9930;49.240;8.548;2022-09-01T05:39:39;19.30;72.00
19567;DHT22;9930;49.240;8.548;2022-09-01T05:42:07;19.30;71.90
19567;DHT22;9930;49.240;8.548;2022-09-01T05:44:34;19.30;72.00
19567;DHT22;9930;49.240;8.548;2022-09-01T05:47:00;19.30;72.10
19567;DHT22;9930;49.240;8.548;2022-09-01T05:49:30;19.40;72.20
19567;DHT22;9930;49.240;8.548;2022-09-01T05:52:02;19.40;72.10
19567;DHT22;9930;49.240;8.548;2022-09-01T05:54:36;19.40;72.10
19567;DHT22;9930;49.240;8.548;2022-09-01T05:57:03;19.40;71.90
19567;DHT22;9930;49.240;8.548;2022-09-01T05:59:29;19.50;72.00
19567;DHT22;9930;49.240;8.548;2022-09-01T06:02:03;19.50;72.10
19567;DHT22;9930;49.240;8.548;2022-09-01T06:04:33;19.50;72.10
19567;DHT22;9930;49.240;8.548;2022-09-01T06:07:03;19.50;72.20
19567;DHT22;9930;49.240;8.548;2022-09-01T06:09:41;19.60;72.40
19567;DHT22;9930;49.240;8.548;2022-09-01T06:12:13;19.60;72.30
19567;DHT22;9930;49.240;8.548;2022-09-01T06:14:46;19.70;72.40
19567;DHT22;9930;49.240;8.548;2022-09-01T06:17:12;19.80;72.50
19567;DHT22;9930;49.240;8.548;2022-09-01T06:19:41;19.80;72.60
19567;DHT22;9930;49.240;8.548;2022-09-01T06:22:07;19.90;73.20
19567;DHT22;9930;49.240;8.548;2022-09-01T06:24:35;20.10;73.70
19567;DHT22;9930;49.240;8.548;2022-09-01T06:27:07;20.20;73.90
19567;DHT22;9930;49.240;8.548;2022-09-01T06:29:43;20.50;74.10
19567;DHT22;9930;49.240;8.548;2022-09-01T06:32:10;20.70;74.10
19567;DHT22;9930;49.240;8.548;2022-09-01T06:34:40;20.90;73.80
19567;DHT22;9930;49.240;8.548;2022-09-01T06:37:09;21.10;73.60
19567;DHT22;9930;49.240;8.548;2022-09-01T06:39:39;21.30;73.10
19567;DHT22;9930;49.240;8.548;2022-09-01T06:42:06;21.50;72.70
19567;DHT22;9930;49.240;8.548;2022-09-01T06:44:33;21.70;72.30
19567;DHT22;9930;49.240;8.548;2022-09-01T06:47:02;21.90;72.00
19567;DHT22;9930;49.240;8.548;2022-09-01T06:49:29;22.00;71.60
19567;DHT22;9930;49.240;8.548;2022-09-01T06:52:01;22.20;71.10
19567;DHT22;9930;49.240;8.548;2022-09-01T06:54:30;22.30;70.40
19567;DHT22;9930;49.240;8.548;2022-09-01T06:56:59;22.40;70.20
19567;DHT22;9930;49.240;8.548;2022-09-01T06:59:30;22.50;70.10
19567;DHT22;9930;49.240;8.548;2022-09-01T07:01:59;22.60;69.80
19567;DHT22;9930;49.240;8.548;2022-09-01T07:04:28;22.60;70.30
19567;DHT22;9930;49.240;8.548;2022-09-01T07:06:58;22.70;69.20
19567;DHT22;9930;49.240;8.548;2022-09-01T07:09:28;22.80;69.10
19567;DHT22;9930;49.240;8.548;2022-09-01T07:11:58;22.90;69.00
19567;DHT22;9930;49.240;8.548;2022-09-01T07:14:31;22.90;68.90
19567;DHT22;9930;49.240;8.548;2022-09-01T07:16:59;23.00;68.90
19567;DHT22;9930;49.240;8.548;2022-09-01T07:19:30;23.10;68.90
19567;DHT22;9930;49.240;8.548;2022-09-01T07:21:59;23.20;68.70
19567;DHT22;9930;49.240;8.548;2022-09-01T07:24:29;23.30;68.30
19567;DHT22;9930;49.240;8.548;2022-09-01T07:26:58;23.30;67.60
19567;DHT22;9930;49.240;8.548;2022-09-01T07:29:30;23.30;66.90
19567;DHT22;9930;49.240;8.548;2022-09-01T07:31:59;23.30;66.80
19567;DHT22;9930;49.240;8.548;2022-09-01T07:34:28;23.30;67.20
19567;DHT22;9930;49.240;8.548;2022-09-01T07:36:58;23.30;67.10
19567;DHT22;9930;49.240;8.548;2022-09-01T07:39:31;23.30;66.80
19567;DHT22;9930;49.240;8.548;2022-09-01T07:42:01;23.30;66.60
19567;DHT22;9930;49.240;8.548;2022-09-01T07:44:37;23.30;66.80
19567;DHT22;9930;49.240;8.548;2022-09-01T07:47:04;23.30;67.00
19567;DHT22;9930;49.240;8.548;2022-09-01T07:49:34;23.30;66.70
19567;DHT22;9930;49.240;8.548;2022-09-01T07:52:04;23.30;66.80
19567;DHT22;9930;49.240;8.548;2022-09-01T07:54:31;23.30;66.80
19567;DHT22;9930;49.240;8.548;2022-09-01T07:56:59;23.30;66.90
19567;DHT22;9930;49.240;8.548;2022-09-01T07:59:32;23.30;66.80
19567;DHT22;9930;49.240;8.548;2022-09-01T08:01:59;23.40;66.60
19567;DHT22;9930;49.240;8.548;2022-09-01T08:04:28;23.40;66.80
19567;DHT22;9930;49.240;8.548;2022-09-01T08:06:59;23.50;66.70
19567;DHT22;9930;49.240;8.548;2022-09-01T08:09:29;23.50;66.80
19567;DHT22;9930;49.240;8.548;2022-09-01T08:11:55;23.60;66.40
19567;DHT22;9930;49.240;8.548;2022-09-01T08:14:24;23.70;66.10
19567;DHT22;9930;49.240;8.548;2022-09-01T08:16:51;23.70;65.90
19567;DHT22;9930;49.240;8.548;2022-09-01T08:19:16;23.70;65.20
19567;DHT22;9930;49.240;8.548;2022-09-01T08:21:42;23.70;65.10
19567;DHT22;9930;49.240;8.548;2022-09-01T08:24:09;23.70;65.10
19567;DHT22;9930;49.240;8.548;2022-09-01T08:26:34;23.70;65.10
19567;DHT22;9930;49.240;8.548;2022-09-01T08:29:01;23.70;65.40
19567;DHT22;9930;49.240;8.548;2022-09-01T08:31:29;23.70;65.30
19567;DHT22;9930;49.240;8.548;2022-09-01T08:33:59;23.80;64.80
19567;DHT22;9930;49.240;8.548;2022-09-01T08:36:29;23.80;64.30
19567;DHT22;9930;49.240;8.548;2022-09-01T08:38:59;23.80;64.60
19567;DHT22;9930;49.240;8.548;2022-09-01T08:47:08;23.90;64.30
19567;DHT22;9930;49.240;8.548;2022-09-01T08:49:37;23.90;63.80
19567;DHT22;9930;49.240;8.548;2022-09-01T08:52:35;23.90;64.00
19567;DHT22;9930;49.240;8.548;2022-09-01T08:55:18;23.90;64.10
19567;DHT22;9930;49.240;8.548;2022-09-01T08:57:56;24.00;64.10
19567;DHT22;9930;49.240;8.548;2022-09-01T09:00:40;24.10;64.60
19567;DHT22;9930;49.240;8.548;2022-09-01T09:03:41;24.20;64.00
19567;DHT22;9930;49.240;8.548;2022-09-01T09:06:46;24.30;63.60
19567;DHT22;9930;49.240;8.548;2022-09-01T09:09:50;24.40;63.50
19567;DHT22;9930;49.240;8.548;2022-09-01T09:15:42;24.60;63.70
19567;DHT22;9930;49.240;8.548;2022-09-01T09:18:42;24.70;63.60
19567;DHT22;9930;49.240;8.548;2022-09-01T09:21:22;24.80;62.20
19567;DHT22;9930;49.240;8.548;2022-09-01T09:24:30;24.90;62.10
19567;DHT22;9930;49.240;8.548;2022-09-01T09:27:33;25.00;61.50
19567;DHT22;9930;49.240;8.548;2022-09-01T09:32:54;25.10;61.90
19567;DHT22;9930;49.240;8.548;2022-09-01T09:35:35;25.20;61.00
19567;DHT22;9930;49.240;8.548;2022-09-01T09:38:14;25.20;61.00
19567;DHT22;9930;49.240;8.548;2022-09-01T09:41:17;25.20;61.30
19567;DHT22;9930;49.240;8.548;2022-09-01T09:44:05;25.30;60.90
19567;DHT22;9930;49.240;8.548;2022-09-01T09:46:49;25.30;61.50
19567;DHT22;9930;49.240;8.548;2022-09-01T09:49:31;25.60;62.10
19567;DHT22;9930;49.240;8.548;2022-09-01T09:54:37;25.80;60.60
19567;DHT22;9930;49.240;8.548;2022-09-01T09:59:36;26.00;59.60
19567;DHT22;9930;49.240;8.548;2022-09-01T10:02:36;26.10;59.40
19567;DHT22;9930;49.240;8.548;2022-09-01T10:08:02;26.10;58.20
19567;DHT22;9930;49.240;8.548;2022-09-01T10:10:40;26.10;58.70
19567;DHT22;9930;49.240;8.548;2022-09-01T10:13:17;26.10;57.90
19567;DHT22;9930;49.240;8.548;2022-09-01T10:15:51;26.10;58.00
19567;DHT22;9930;49.240;8.548;2022-09-01T10:18:22;26.10;58.40
19567;DHT22;9930;49.240;8.548;2022-09-01T10:21:06;26.00;58.30
19567;DHT22;9930;49.240;8.548;2022-09-01T10:23:35;26.00;57.90
19567;DHT22;9930;49.240;8.548;2022-09-01T10:26:25;26.00;58.50
19567;DHT22;9930;49.240;8.548;2022-09-01T10:29:19;26.00;58.10
19567;DHT22;9930;49.240;8.548;2022-09-01T10:31:53;26.10;58.20
19567;DHT22;9930;49.240;8.548;2022-09-01T10:34:32;26.30;58.80
19567;DHT22;9930;49.240;8.548;2022-09-01T10:37:06;26.40;57.10
19567;DHT22;9930;49.240;8.548;2022-09-01T10:39:32;26.40;56.60
19567;DHT22;9930;49.240;8.548;2022-09-01T10:42:00;26.40;56.60
19567;DHT22;9930;49.240;8.548;2022-09-01T10:44:54;26.40;56.60
19567;DHT22;9930;49.240;8.548;2022-09-01T10:47:31;26.40;56.90
19567;DHT22;9930;49.240;8.548;2022-09-01T10:50:04;26.40;56.90
19567;DHT22;9930;49.240;8.548;2022-09-01T10:52:58;26.40;56.40
19567;DHT22;9930;49.240;8.548;2022-09-01T10:55:39;26.40;56.40
19567;DHT22;9930;49.240;8.548;2022-09-01T11:00:59;26.40;56.40
19567;DHT22;9930;49.240;8.548;2022-09-01T11:03:32;26.50;56.20
19567;DHT22;9930;49.240;8.548;2022-09-01T11:06:07;26.40;56.10
19567;DHT22;9930;49.240;8.548;2022-09-01T11:16:34;26.70;55.00
19567;DHT22;9930;49.240;8.548;2022-09-01T11:19:33;26.80;55.30
19567;DHT22;9930;49.240;8.548;2022-09-01T11:28:09;27.00;55.70
19567;DHT22;9930;49.240;8.548;2022-09-01T11:30:34;27.00;55.80
19567;DHT22;9930;49.240;8.548;2022-09-01T11:35:44;27.20;55.40
19567;DHT22;9930;49.240;8.548;2022-09-01T11:38:14;27.30;55.00
19567;DHT22;9930;49.240;8.548;2022-09-01T11:40:42;27.40;54.30
19567;DHT22;9930;49.240;8.548;2022-09-01T11:43:29;27.40;54.50
19567;DHT22;9930;49.240;8.548;2022-09-01T11:46:04;27.50;53.80
19567;DHT22;9930;49.240;8.548;2022-09-01T11:48:35;27.50;53.80
19567;DHT22;9930;49.240;8.548;2022-09-01T11:51:02;27.50;53.30
19567;DHT22;9930;49.240;8.548;2022-09-01T11:53:31;27.50;53.40
19567;DHT22;9930;49.240;8.548;2022-09-01T11:56:13;27.50;53.70
19567;DHT22;9930;49.240;8.548;2022-09-01T11:58:41;27.50;53.20
19567;DHT22;9930;49.240;8.548;2022-09-01T12:04:16;27.50;52.70
19567;DHT22;9930;49.240;8.548;2022-09-01T12:06:54;27.50;52.70
19567;DHT22;9930;49.240;8.548;2022-09-01T12:09:41;27.40;52.50
19567;DHT22;9930;49.240;8.548;2022-09-01T12:15:09;27.30;53.40
19567;DHT22;9930;49.240;8.548;2022-09-01T12:17:35;27.30;53.50
19567;DHT22;9930;49.240;8.548;2022-09-01T12:20:28;27.40;53.50
19567;DHT22;9930;49.240;8.548;2022-09-01T12:22:59;27.40;52.60
19567;DHT22;9930;49.240;8.548;2022-09-01T12:25:30;27.60;53.70
19567;DHT22;9930;49.240;8.548;2022-09-01T12:28:04;27.70;53.60
19567;DHT22;9930;49.240;8.548;2022-09-01T12:30:33;27.90;53.50
19567;DHT22;9930;49.240;8.548;2022-09-01T12:33:09;28.00;53.30
19567;DHT22;9930;49.240;8.548;2022-09-01T12:35:38;28.10;52.60
19567;DHT22;9930;49.240;8.548;2022-09-01T12:38:21;28.10;52.20
19567;DHT22;9930;49.240;8.548;2022-09-01T12:40:54;28.10;51.60
19567;DHT22;9930;49.240;8.548;2022-09-01T12:43:36;28.10;51.50
19567;DHT22;9930;49.240;8.548;2022-09-01T12:46:06;28.00;50.70
19567;DHT22;9930;49.240;8.548;2022-09-01T12:48:36;27.90;51.00
19567;DHT22;9930;49.240;8.548;2022-09-01T12:51:19;27.80;50.70
19567;DHT22;9930;49.240;8.548;2022-09-01T12:53:53;27.60;50.50
19567;DHT22;9930;49.240;8.548;2022-09-01T12:56:35;27.50;50.70
19567;DHT22;9930;49.240;8.548;2022-09-01T12:59:19;27.50;50.70
19567;DHT22;9930;49.240;8.548;2022-09-01T13:01:50;27.40;50.80
19567;DHT22;9930;49.240;8.548;2022-09-01T13:07:03;27.50;50.80
19567;DHT22;9930;49.240;8.548;2022-09-01T13:09:30;27.50;51.10
19567;DHT22;9930;49.240;8.548;2022-09-01T13:12:19;27.50;51.00
19567;DHT22;9930;49.240;8.548;2022-09-01T13:14:46;27.50;50.30
19567;DHT22;9930;49.240;8.548;2022-09-01T13:17:12;27.50;50.70
19567;DHT22;9930;49.240;8.548;2022-09-01T13:19:40;27.50;50.70
19567;DHT22;9930;49.240;8.548;2022-09-01T13:22:06;27.40;50.60
19567;DHT22;9930;49.240;8.548;2022-09-01T13:24:32;27.40;50.70
19567;DHT22;9930;49.240;8.548;2022-09-01T13:26:59;27.40;50.70
19567;DHT22;9930;49.240;8.548;2022-09-01T13:29:31;27.50;50.70
19567;DHT22;9930;49.240;8.548;2022-09-01T13:31:59;27.50;50.60
19567;DHT22;9930;49.240;8.548;2022-09-01T13:34:27;27.50;50.70
19567;DHT22;9930;49.240;8.548;2022-09-01T13:36:54;27.50;50.60
19567;DHT22;9930;49.240;8.548;2022-09-01T13:39:24;27.50;50.60
19567;DHT22;9930;49.240;8.548;2022-09-01T13:42:00;27.50;50.80
19567;DHT22;9930;49.240;8.548;2022-09-01T13:44:29;27.50;50.60
19567;DHT22;9930;49.240;8.548;2022-09-01T13:46:58;27.50;50.50
19567;DHT22;9930;49.240;8.548;2022-09-01T13:49:24;27.60;50.50
19567;DHT22;9930;49.240;8.548;2022-09-01T13:52:01;27.70;50.40
19567;DHT22;9930;49.240;8.548;2022-09-01T13:54:29;27.70;49.80
19567;DHT22;9930;49.240;8.548;2022-09-01T13:57:00;27.80;49.90
19567;DHT22;9930;49.240;8.548;2022-09-01T13:59:29;27.80;49.70
19567;DHT22;9930;49.240;8.548;2022-09-01T14:02:00;27.90;49.60
19567;DHT22;9930;49.240;8.548;2022-09-01T14:04:29;27.90;49.50
19567;DHT22;9930;49.240;8.548;2022-09-01T14:06:59;28.00;49.10
19567;DHT22;9930;49.240;8.548;2022-09-01T14:09:35;28.00;48.60
19567;DHT22;9930;49.240;8.548;2022-09-01T14:12:03;28.00;48.30
19567;DHT22;9930;49.240;8.548;2022-09-01T14:14:29;27.90;48.20
19567;DHT22;9930;49.240;8.548;2022-09-01T14:16:59;27.90;48.40
19567;DHT22;9930;49.240;8.548;2022-09-01T14:19:29;27.90;48.40
19567;DHT22;9930;49.240;8.548;2022-09-01T14:22:00;27.90;48.30
19567;DHT22;9930;49.240;8.548;2022-09-01T14:24:32;27.90;48.50
19567;DHT22;9930;49.240;8.548;2022-09-01T14:27:01;27.80;48.70
19567;DHT22;9930;49.240;8.548;2022-09-01T14:29:30;27.80;48.80
19567;DHT22;9930;49.240;8.548;2022-09-01T14:31:59;27.80;48.80
19567;DHT22;9930;49.240;8.548;2022-09-01T14:34:28;27.90;48.90
19567;DHT22;9930;49.240;8.548;2022-09-01T14:36:57;27.90;48.80
19567;DHT22;9930;49.240;8.548;2022-09-01T14:39:24;27.90;48.80
19567;DHT22;9930;49.240;8.548;2022-09-01T14:41:49;27.90;48.40
19567;DHT22;9930;49.240;8.548;2022-09-01T14:44:15;27.90;48.20
19567;DHT22;9930;49.240;8.548;2022-09-01T14:46:41;27.90;48.10
19567;DHT22;9930;49.240;8.548;2022-09-01T14:49:09;27.90;48.00
19567;DHT22;9930;49.240;8.548;2022-09-01T14:51:36;27.90;48.20
19567;DHT22;9930;49.240;8.548;2022-09-01T14:54:03;27.90;48.30
19567;DHT22;9930;49.240;8.548;2022-09-01T14:56:29;27.80;48.10
19567;DHT22;9930;49.240;8.548;2022-09-01T14:58:57;27.80;48.20
19567;DHT22;9930;49.240;8.548;2022-09-01T15:01:29;27.80;48.00
19567;DHT22;9930;49.240;8.548;2022-09-01T15:03:58;27.80;48.10
19567;DHT22;9930;49.240;8.548;2022-09-01T15:06:25;27.80;48.10
19567;DHT22;9930;49.240;8.548;2022-09-01T15:08:59;27.90;48.00
19567;DHT22;9930;49.240;8.548;2022-09-01T15:11:27;27.90;48.00
19567;DHT22;9930;49.240;8.548;2022-09-01T15:13:58;27.90;47.80
19567;DHT22;9930;49.240;8.548;2022-09-01T15:16:29;27.90;47.60
19567;DHT22;9930;49.240;8.548;2022-09-01T15:18:55;27.90;47.30
19567;DHT22;9930;49.240;8.548;2022-09-01T15:21:28;27.90;47.30
19567;DHT22;9930;49.240;8.548;2022-09-01T15:23:59;27.90;47.20
19567;DHT22;9930;49.240;8.548;2022-09-01T15:26:32;27.90;47.30
19567;DHT22;9930;49.240;8.548;2022-09-01T15:28:59;27.90;47.30
19567;DHT22;9930;49.240;8.548;2022-09-01T15:31:31;27.90;47.30
19567;DHT22;9930;49.240;8.548;2022-09-01T15:34:01;27.80;47.20
19567;DHT22;9930;49.240;8.548;2022-09-01T15:36:30;27.80;47.20
19567;DHT22;9930;49.240;8.548;2022-09-01T15:38:59;27.90;47.50
19567;DHT22;9930;49.240;8.548;2022-09-01T15:41:31;27.90;47.50
19567;DHT22;9930;49.240;8.548;2022-09-01T15:44:03;27.80;47.30
19567;DHT22;9930;49.240;8.548;2022-09-01T15:46:34;27.90;47.50
19567;DHT22;9930;49.240;8.548;2022-09-01T15:49:05;27.90;47.60
19567;DHT22;9930;49.240;8.548;2022-09-01T15:51:40;27.90;47.60
19567;DHT22;9930;49.240;8.548;2022-09-01T15:56:40;27.90;47.20
19567;DHT22;9930;49.240;8.548;2022-09-01T15:59:08;28.00;47.10
19567;DHT22;9930;49.240;8.548;2022-09-01T16:01:40;28.00;46.90
19567;DHT22;9930;49.240;8.548;2022-09-01T16:04:09;28.00;46.90
19567;DHT22;9930;49.240;8.548;2022-09-01T16:06:41;28.00;46.90
19567;DHT22;9930;49.240;8.548;2022-09-01T16:09:12;28.00;46.70
19567;DHT22;9930;49.240;8.548;2022-09-01T16:11:39;28.00;46.60
19567;DHT22;9930;49.240;8.548;2022-09-01T16:14:06;28.00;46.40
19567;DHT22;9930;49.240;8.548;2022-09-01T16:16:37;27.90;46.40
19567;DHT22;9930;49.240;8.548;2022-09-01T16:25:09;27.80;46.10
19567;DHT22;9930;49.240;8.548;2022-09-01T16:27:42;27.80;46.10
19567;DHT22;9930;49.240;8.548;2022-09-01T16:30:13;27.70;46.20
19567;DHT22;9930;49.240;8.548;2022-09-01T16:32:45;27.70;46.30
19567;DHT22;9930;49.240;8.548;2022-09-01T16:35:18;27.60;46.10
19567;DHT22;9930;49.240;8.548;2022-09-01T16:38:09;27.60;46.40
19567;DHT22;9930;49.240;8.548;2022-09-01T16:44:07;27.50;46.10
19567;DHT22;9930;49.240;8.548;2022-09-01T16:52:33;27.30;46.30
19567;DHT22;9930;49.240;8.548;2022-09-01T17:08:54;26.90;46.60
19567;DHT22;9930;49.240;8.548;2022-09-01T17:11:49;26.90;46.70
19567;DHT22;9930;49.240;8.548;2022-09-01T17:14:36;26.80;46.80
19567;DHT22;9930;49.240;8.548;2022-09-01T17:17:18;26.80;46.70
19567;DHT22;9930;49.240;8.548;2022-09-01T17:19:45;26.70;46.80
19567;DHT22;9930;49.240;8.548;2022-09-01T17:22:17;26.70;46.90
19567;DHT22;9930;49.240;8.548;2022-09-01T17:24:48;26.60;47.00
19567;DHT22;9930;49.240;8.548;2022-09-01T17:30:04;26.50;47.20
19567;DHT22;9930;49.240;8.548;2022-09-01T17:38:38;26.30;47.40
19567;DHT22;9930;49.240;8.548;2022-09-01T17:41:32;26.20;47.50
19567;DHT22;9930;49.240;8.548;2022-09-01T17:47:54;26.10;47.80
19567;DHT22;9930;49.240;8.548;2022-09-01T17:51:10;26.00;47.90